Terminal Aerodrome Forecast
Issued by NWS

Current Version | Previous Version | Graphics & Text | Print | Product List | Glossary On
Versions: 1 2 3 4 5 6 7 8 9 10 11 12 13 14 15 16 17 18 19 20 21 22 23 24 25 26 27 28
000
FTUS41 KILN 150400 AAA
TAFLCK
TAF AMD
KLCK 150417Z 1504/1524 22004KT P6SM BKN035
     FM150800 17004KT 5SM BR OVC025
     FM151700 15007KT P6SM SCT030 BKN250
     FM152200 15008KT P6SM SCT050 BKN100=

USA.gov is the U.S. government's official web portal to all federal, state and local government web resources and services.